M I D A S
Marine Information and Data Acquisition System
Tripno 2010 of the Zeeleeuw from 2010-10-12 08:21:20 to 2010-10-12 16:04:30
Back to CruiseResearch ActivitiesStationsMapUnderway DataData graphs

EquipmentUnitsComment
TimeDGPSUTC
LatitudeDGPSDM.mWGS84
LongitudeDGPSDM.mWGS84
HeadingGyrodeg 
SOGDGPSknotsSpeed over ground
COGDGPSdegCourse over ground
DepthEcho soundermeters200 kHz
Missing or incorrect values are displayed as -999
Navigation data collected by the RV Zeeleeuw from 2010-10-12 07:04:29 to 2010-10-13 10:25:50
Time Latitude Longitude Heading SOG COG Depth
2010-10-12 07:05:34 51°13.662 2°55.961 123.9 -999 159 -999
2010-10-12 07:06:34 51°13.662 2°55.961 124.2 0.1 303 -999
2010-10-12 07:07:34 51°13.662 2°55.961 125.5 -999 287 -999
2010-10-12 07:08:34 51°13.661 2°55.961 126.1 0.1 298 -999
2010-10-12 07:09:33 51°13.662 2°55.961 124.2 -999 168 -999
2010-10-12 07:10:34 51°13.662 2°55.96 123.7 -999 277 -999
2010-10-12 07:11:33 51°13.662 2°55.961 124.9 0.1 152 -999
2010-10-12 07:12:32 51°13.662 2°55.96 124.1 -999 179 7.6
2010-10-12 07:13:31 51°13.662 2°55.961 125.8 -999 275 7.6
2010-10-12 07:14:30 51°13.662 2°55.961 124.1 -999 90 7.6
2010-10-12 07:15:30 51°13.662 2°55.96 124.4 0.1 321 7.5
2010-10-12 07:16:29 51°13.662 2°55.961 124.4 -999 158 7.6
2010-10-12 07:17:30 51°13.663 2°55.961 124.9 -999 149 7.6
2010-10-12 07:18:29 51°13.663 2°55.961 124.2 -999 277 7.5
2010-10-12 07:19:30 51°13.663 2°55.96 123.9 -999 270 7.5
2010-10-12 07:20:30 51°13.662 2°55.961 125.1 -999 111 7.5
2010-10-12 07:21:29 51°13.662 2°55.96 124.2 -999 319 7.5
2010-10-12 07:22:30 51°13.662 2°55.961 126.1 0.1 143 7.4
2010-10-12 07:23:29 51°13.662 2°55.96 126.2 0.1 321 7.5
2010-10-12 07:24:30 51°13.662 2°55.96 126.2 -999 106 7.5
2010-10-12 07:25:29 51°13.662 2°55.959 126.2 -999 336 7.4
2010-10-12 07:26:30 51°13.662 2°55.959 126.6 0.1 268 7.4
2010-10-12 07:27:29 51°13.662 2°55.961 122.2 0.1 184 7.4
2010-10-12 07:28:30 51°13.661 2°55.96 111.9 0.1 219 7.4
2010-10-12 07:29:32 51°13.669 2°55.924 108.8 2.8 291 -999
2010-10-12 07:30:33 51°13.688 2°55.833 100.7 3.6 284 -999
2010-10-12 07:31:33 51°13.696 2°55.768 84 0.5 15 12.7
2010-10-12 07:32:33 51°13.69 2°55.751 46.5 1.4 234 -999
2010-10-12 07:33:33 51°13.726 2°55.733 334 4.4 327 11.9
2010-10-12 07:34:32 51°13.81 2°55.65 332 7 332 11.3
2010-10-12 07:35:31 51°13.93 2°55.557 334.8 8.9 334 10.5
2010-10-12 07:36:30 51°14.069 2°55.455 335.5 9.7 334 9.5
2010-10-12 07:37:29 51°14.21 2°55.334 331.1 9.9 330 10
2010-10-12 07:38:30 51°14.352 2°55.19 327.7 10.1 326 9.7
2010-10-12 07:39:30 51°14.492 2°55.032 326.5 10.6 325 10.1
2010-10-12 07:40:30 51°14.598 2°54.79 292.8 12.3 288 10.5
2010-10-12 07:41:30 51°14.556 2°54.485 227.3 13.2 228 9.1
2010-10-12 07:42:29 51°14.407 2°54.209 226.6 14.2 234 8.4
2010-10-12 07:43:29 51°14.276 2°53.894 239.6 14.5 240 8.4
2010-10-12 07:44:29 51°14.164 2°53.553 242 14.7 244 8.6
2010-10-12 07:45:29 51°14.049 2°53.211 239.6 14.7 240 8.9
2010-10-12 07:46:29 51°13.931 2°52.87 240.2 14.5 242 9
2010-10-12 07:47:29 51°13.808 2°52.536 237.4 14.8 239 9
2010-10-12 07:48:29 51°13.681 2°52.202 237.8 14.6 241 9.1
2010-10-12 07:49:30 51°13.551 2°51.861 237.4 14.9 241 9.3
2010-10-12 07:50:29 51°13.431 2°51.524 237.5 15 242 9.8
2010-10-12 07:51:30 51°13.305 2°51.184 237.1 14.5 238 9.6
2010-10-12 07:52:30 51°13.185 2°50.849 238.4 14.7 241 9.8
2010-10-12 07:53:30 51°13.065 2°50.514 235.8 14.7 241 9.8
2010-10-12 07:54:30 51°12.945 2°50.177 238.4 14.4 240 9.9
2010-10-12 07:55:29 51°12.825 2°49.846 238.6 14.8 243 10.2
2010-10-12 07:56:29 51°12.702 2°49.514 234.9 14.5 235 10.4
2010-10-12 07:57:29 51°12.581 2°49.184 238.6 14.6 242 10.4
2010-10-12 07:58:30 51°12.458 2°48.843 238.2 14.1 239 10.5
2010-10-12 07:59:29 51°12.336 2°48.52 238.9 14.4 238 10.7
2010-10-12 08:00:30 51°12.216 2°48.181 236.3 14.5 237 10.4
2010-10-12 08:01:29 51°12.097 2°47.855 236.5 14.6 236 10.5
2010-10-12 08:02:30 51°11.973 2°47.518 237.7 14.4 239 10.3
2010-10-12 08:03:29 51°11.859 2°47.186 240.5 14.6 242 10.1
2010-10-12 08:04:30 51°11.74 2°46.843 239.3 14.4 241 10
2010-10-12 08:05:29 51°11.623 2°46.515 238.9 14.3 242 9.6
2010-10-12 08:06:30 51°11.501 2°46.177 236.8 14.1 239 9.5
2010-10-12 08:07:29 51°11.387 2°45.847 240.2 14.3 242 9.1
2010-10-12 08:08:29 51°11.272 2°45.511 239.2 14.4 240 9.2
2010-10-12 08:09:29 51°11.155 2°45.175 239 14.2 240 8.5
2010-10-12 08:10:29 51°11.034 2°44.846 237 14.5 241 8.4
2010-10-12 08:11:29 51°10.921 2°44.515 240.1 14 243 7.8
2010-10-12 08:12:29 51°10.806 2°44.191 237.9 13.9 239 5.6
2010-10-12 08:13:29 51°10.711 2°43.853 247.6 13.8 248 7.2
2010-10-12 08:14:29 51°10.626 2°43.504 246.8 14.2 247 7.7
2010-10-12 08:15:29 51°10.542 2°43.156 247.3 14.1 249 7.6
2010-10-12 08:16:30 51°10.447 2°42.811 244.9 14 247 7.5
2010-10-12 08:17:29 51°10.372 2°42.47 250.9 14 251 7.6
2010-10-12 08:18:30 51°10.304 2°42.11 251.1 14 255 7.4
2010-10-12 08:19:29 51°10.234 2°41.762 252.4 13.9 252 7.7
2010-10-12 08:20:30 51°10.165 2°41.398 252.8 14.1 256 8
2010-10-12 08:21:29 51°10.086 2°41.051 250.9 14.2 254 8.1
2010-10-12 08:22:30 51°10.014 2°40.685 251.1 14.2 252 8.2
2010-10-12 08:23:29 51°9.944 2°40.333 250.6 14.3 250 8.6
2010-10-12 08:24:30 51°9.87 2°39.971 251.4 14 248 8.8
2010-10-12 08:25:29 51°9.8 2°39.62 250.4 14.2 252 8.9
2010-10-12 08:26:29 51°9.726 2°39.263 251.4 14.4 252 9.2
2010-10-12 08:27:30 51°9.654 2°38.896 250.5 14.3 252 9.2
2010-10-12 08:28:29 51°9.586 2°38.544 251.3 14.1 253 9.2
2010-10-12 08:29:30 51°9.503 2°38.185 247.5 14.2 250 9.4
2010-10-12 08:30:29 51°9.412 2°37.844 243.9 14.3 244 9.7
2010-10-12 08:31:30 51°9.315 2°37.498 246.3 14 246 9.8
2010-10-12 08:32:29 51°9.237 2°37.152 249.6 14.1 251 9.8
2010-10-12 08:33:30 51°9.156 2°36.797 249 12.9 252 10.3
2010-10-12 08:34:29 51°9.095 2°36.537 249.1 9.1 253 10.4
2010-10-12 08:35:30 51°9.075 2°36.343 286.6 6 281 11.4
2010-10-12 08:36:30 51°9.124 2°36.246 345.7 5.7 331 13
2010-10-12 08:37:30 51°9.235 2°36.134 335.9 6.8 324 14.4
2010-10-12 08:38:29 51°9.293 2°36.095 23.2 2.2 351 14.5
2010-10-12 08:39:29 51°9.315 2°36.093 46.2 0.7 345 14.7
2010-10-12 08:40:29 51°9.319 2°36.082 52.7 0.7 257 14.8
2010-10-12 08:41:29 51°9.314 2°36.067 53.1 0.5 256 14.7
2010-10-12 08:42:29 51°9.315 2°36.056 43.9 0.6 282 15
2010-10-12 08:43:30 51°9.318 2°36.046 52.1 0.4 284 15.1
2010-10-12 08:44:29 51°9.318 2°36.042 54.4 0.2 338 14.5
2010-10-12 08:45:30 51°9.324 2°36.039 47.6 0.4 350 14.9
2010-10-12 08:46:29 51°9.331 2°36.04 53.2 0.5 19 14.8
2010-10-12 08:47:30 51°9.336 2°36.043 49.9 0.3 357 14.6
2010-10-12 08:48:29 51°9.342 2°36.042 43.5 0.5 2 14.8
2010-10-12 08:49:30 51°9.351 2°36.041 46.5 0.4 346 15.1
2010-10-12 08:50:30 51°9.36 2°36.039 47 0.5 341 14.8
2010-10-12 08:51:29 51°9.365 2°36.038 54.1 0.1 7 14.9
2010-10-12 08:52:30 51°9.367 2°36.037 53.2 0.2 319 14.6
2010-10-12 08:53:29 51°9.371 2°36.029 42 0.6 296 14.6
2010-10-12 08:54:30 51°9.377 2°36.012 37 0.7 296 14.8
2010-10-12 08:55:29 51°9.383 2°35.994 38.6 0.9 296 15.1
2010-10-12 08:56:30 51°9.387 2°35.978 48.7 0.4 286 14.9
2010-10-12 08:57:29 51°9.388 2°35.981 62.2 0.3 67 15.1
2010-10-12 08:58:30 51°9.389 2°35.991 58.9 0.4 80 15.2
2010-10-12 08:59:29 51°9.394 2°35.998 46 0.6 18 14.9
2010-10-12 09:00:30 51°9.407 2°35.998 35.7 1 345 14.9
2010-10-12 09:01:30 51°9.427 2°35.986 32.5 1.2 341 15.1
2010-10-12 09:02:30 51°9.432 2°36.033 98.1 4.5 114 14.9
2010-10-12 09:03:30 51°9.416 2°36.243 85.2 9.6 90 14.7
2010-10-12 09:04:29 51°9.425 2°36.503 82.5 10.3 86 13.7
2010-10-12 09:05:30 51°9.426 2°36.784 88.4 10.7 95 13.9
2010-10-12 09:06:29 51°9.414 2°37.063 88.7 10.7 89 13.1
2010-10-12 09:07:30 51°9.406 2°37.321 88.5 7.1 92 11.2
2010-10-12 09:08:29 51°9.418 2°37.436 62.6 3.2 65 11.3
2010-10-12 09:09:30 51°9.446 2°37.487 47.4 1.9 38 11.1
2010-10-12 09:10:30 51°9.462 2°37.498 42.2 0.5 -999 11.3
2010-10-12 09:11:30 51°9.468 2°37.488 41.2 0.4 312 11.3
2010-10-12 09:12:30 51°9.468 2°37.478 54.3 0.3 245 11.6
2010-10-12 09:13:30 51°9.463 2°37.471 57.8 0.5 203 10.9
2010-10-12 09:14:30 51°9.454 2°37.462 61.7 0.6 203 11.5
2010-10-12 09:15:30 51°9.446 2°37.455 60.3 0.4 198 11
2010-10-12 09:16:29 51°9.441 2°37.45 55.1 0.4 200 11.6
2010-10-12 09:17:29 51°9.439 2°37.443 50.2 0.2 284 11.3
2010-10-12 09:18:29 51°9.438 2°37.438 50.9 0.2 205 11.2
2010-10-12 09:19:29 51°9.435 2°37.433 55.7 0.3 218 11.3
2010-10-12 09:20:29 51°9.431 2°37.43 61.4 0.3 195 11
2010-10-12 09:21:30 51°9.425 2°37.428 60.2 0.2 206 11.3
2010-10-12 09:22:29 51°9.421 2°37.428 58.6 0.2 169 11.2
2010-10-12 09:23:30 51°9.419 2°37.427 56.8 0.3 209 11.3
2010-10-12 09:24:30 51°9.414 2°37.426 60.8 0.3 182 11.5
2010-10-12 09:25:30 51°9.411 2°37.427 56 0.1 170 11.1
2010-10-12 09:26:30 51°9.411 2°37.428 50.6 -999 38 11
2010-10-12 09:27:30 51°9.411 2°37.428 49.9 0.1 265 11.3
2010-10-12 09:28:30 51°9.407 2°37.428 62.1 0.2 184 10.8
2010-10-12 09:29:29 51°9.404 2°37.429 58.3 0.1 203 11
2010-10-12 09:30:30 51°9.404 2°37.431 54.2 0.2 92 10.9
2010-10-12 09:31:29 51°9.405 2°37.434 54.5 0.1 69 11.1
2010-10-12 09:32:30 51°9.406 2°37.439 55 0.2 60 10.9
2010-10-12 09:33:29 51°9.407 2°37.443 56 0.2 100 10.8
2010-10-12 09:34:30 51°9.406 2°37.446 56.1 0.2 202 11.3
2010-10-12 09:35:29 51°9.405 2°37.449 58.9 0.3 149 11
2010-10-12 09:36:30 51°9.402 2°37.453 62.4 0.2 133 11.1
2010-10-12 09:37:29 51°9.4 2°37.455 55.2 0.2 154 11.1
2010-10-12 09:38:30 51°9.4 2°37.454 49 0.1 316 10.9
2010-10-12 09:39:29 51°9.4 2°37.453 50.1 0.1 228 11.1
2010-10-12 09:40:30 51°9.402 2°37.455 51.9 0.2 45 10.6
2010-10-12 09:41:29 51°9.403 2°37.459 54.4 0.2 73 10.8
2010-10-12 09:42:29 51°9.405 2°37.463 48.9 0.1 99 11.1
2010-10-12 09:43:29 51°9.409 2°37.464 47.4 0.2 7 11.3
2010-10-12 09:44:29 51°9.411 2°37.467 49.6 0.2 33 10.9
2010-10-12 09:45:30 51°9.414 2°37.468 44.4 0.2 14 11.1
2010-10-12 09:46:29 51°9.419 2°37.464 36.4 0.5 326 11.1
2010-10-12 09:47:30 51°9.424 2°37.457 37.9 0.5 311 11.2
2010-10-12 09:48:30 51°9.429 2°37.449 42.8 0.3 321 11.1
2010-10-12 09:49:29 51°9.432 2°37.445 53.1 0.3 12 11.2
2010-10-12 09:50:30 51°9.432 2°37.451 63.1 0.4 109 11.2
2010-10-12 09:51:29 51°9.429 2°37.458 58.9 0.2 131 11.5
2010-10-12 09:52:30 51°9.428 2°37.461 51.6 0.3 130 11.3
2010-10-12 09:53:29 51°9.428 2°37.458 46.4 0.2 287 11.3
2010-10-12 09:54:29 51°9.429 2°37.453 46.5 0.2 294 11.6
2010-10-12 09:55:28 51°9.427 2°37.452 61.8 0.3 174 11.5
2010-10-12 09:56:29 51°9.422 2°37.455 62.3 0.3 152 11.6
2010-10-12 09:57:29 51°9.417 2°37.457 59 0.2 169 11.2
2010-10-12 09:58:29 51°9.412 2°37.456 55 0.3 218 11.2
2010-10-12 09:59:30 51°9.409 2°37.452 48 0.3 262 11.2
2010-10-12 10:00:29 51°9.409 2°37.445 41.3 0.4 284 11.2
2010-10-12 10:01:30 51°9.414 2°37.432 34.2 0.6 305 11.5
2010-10-12 10:02:29 51°9.418 2°37.419 44 0.4 269 11.3
2010-10-12 10:03:30 51°9.414 2°37.413 64.5 0.5 187 11.4
2010-10-12 10:04:29 51°9.403 2°37.415 73.5 0.7 173 11.7
2010-10-12 10:05:30 51°9.392 2°37.414 61.6 0.5 195 11.4
2010-10-12 10:06:29 51°9.386 2°37.409 56.9 0.3 209 11.1
2010-10-12 10:07:29 51°9.38 2°37.404 54.5 0.5 223 11.3
2010-10-12 10:08:29 51°9.375 2°37.4 53.3 0.1 194 10.8
2010-10-12 10:09:29 51°9.37 2°37.398 58.9 0.4 176 11.1
2010-10-12 10:10:29 51°9.363 2°37.397 57.4 0.4 169 11
2010-10-12 10:11:29 51°9.359 2°37.395 54.8 0.1 215 10.9
2010-10-12 10:12:29 51°9.356 2°37.394 55.2 0.2 187 11
2010-10-12 10:13:29 51°9.353 2°37.395 57.6 0.2 156 10.9
2010-10-12 10:14:29 51°9.348 2°37.394 56 0.4 184 10.9
2010-10-12 10:15:29 51°9.344 2°37.394 58.6 0.4 180 10.9
2010-10-12 10:16:30 51°9.337 2°37.393 61 0.5 164 10.6
2010-10-12 10:17:30 51°9.33 2°37.396 61.5 0.4 161 10.7
2010-10-12 10:18:30 51°9.322 2°37.395 61 0.5 192 11.1
2010-10-12 10:19:29 51°9.319 2°37.395 55.2 0.1 234 10.9
2010-10-12 10:20:29 51°9.316 2°37.396 55.9 0.2 164 10.9
2010-10-12 10:21:29 51°9.312 2°37.401 60.3 0.4 151 10.7
2010-10-12 10:22:29 51°9.306 2°37.404 61 0.3 167 10.9
2010-10-12 10:23:29 51°9.302 2°37.406 57.4 0.3 145 10.4
2010-10-12 10:24:29 51°9.3 2°37.41 57.1 0.4 150 10.2
2010-10-12 10:25:29 51°9.293 2°37.411 59.3 0.3 189 10.5
2010-10-12 10:26:30 51°9.285 2°37.412 61.8 0.5 171 10.2
2010-10-12 10:27:29 51°9.279 2°37.412 60 0.5 173 10.8
2010-10-12 10:28:30 51°9.273 2°37.412 57.6 0.3 193 10.2
2010-10-12 10:29:29 51°9.269 2°37.41 52.9 0.2 203 10.2
2010-10-12 10:30:30 51°9.265 2°37.405 48.1 0.3 213 10.1
2010-10-12 10:31:29 51°9.263 2°37.399 45.8 0.3 227 10.5
2010-10-12 10:32:29 51°9.261 2°37.391 47.5 0.2 246 10
2010-10-12 10:33:29 51°9.259 2°37.387 51.3 0.2 188 10.2
2010-10-12 10:34:29 51°9.258 2°37.387 49.5 0.1 211 10.4
2010-10-12 10:35:29 51°9.259 2°37.384 43.6 0.1 172 9.9
2010-10-12 10:36:29 51°9.26 2°37.379 44.8 0.2 304 10.3
2010-10-12 10:37:30 51°9.263 2°37.375 41.3 0.1 18 10.5
2010-10-12 10:38:29 51°9.267 2°37.368 39.7 0.4 294 10.2
2010-10-12 10:39:30 51°9.269 2°37.36 39.8 0.4 285 10.9
2010-10-12 10:40:29 51°9.275 2°37.348 33.5 0.7 306 10.6
2010-10-12 10:41:30 51°9.281 2°37.329 29.6 0.8 292 10.9
2010-10-12 10:42:29 51°9.287 2°37.31 31.1 0.7 298 10.8
2010-10-12 10:43:30 51°9.289 2°37.295 44.2 0.5 270 10.9
2010-10-12 10:44:29 51°9.289 2°37.289 53.1 0.1 188 10.9
2010-10-12 10:45:29 51°9.286 2°37.29 60.7 0.4 173 10.8
2010-10-12 10:46:29 51°9.278 2°37.293 62.4 0.5 171 10.6
2010-10-12 10:47:29 51°9.273 2°37.296 57 0.2 149 10.8
2010-10-12 10:48:29 51°9.267 2°37.294 55.2 0.3 184 10.4
2010-10-12 10:49:29 51°9.264 2°37.288 48 0.3 258 10.8
2010-10-12 10:50:29 51°9.263 2°37.281 46.4 0.4 232 11
2010-10-12 10:51:29 51°9.26 2°37.276 53.8 0.3 206 10.5
2010-10-12 10:52:29 51°9.255 2°37.274 61.2 0.4 185 11
2010-10-12 10:53:30 51°9.249 2°37.277 59.4 0.3 174 10.8
2010-10-12 10:54:29 51°9.245 2°37.279 55.2 0.2 138 10.3
2010-10-12 10:55:30 51°9.241 2°37.279 51.3 0.1 191 10.7
2010-10-12 10:56:29 51°9.237 2°37.279 53.3 0.3 191 10.4
2010-10-12 10:57:29 51°9.234 2°37.278 54.5 0.2 152 10.7
2010-10-12 10:58:28 51°9.23 2°37.278 55.3 0.3 183 10.7
2010-10-12 10:59:29 51°9.225 2°37.28 57.6 0.5 160 10.5
2010-10-12 11:00:28 51°9.218 2°37.281 63.6 0.4 183 10.1
2010-10-12 11:01:29 51°9.213 2°37.285 57.4 0.3 141 10.6
2010-10-12 11:02:29 51°9.208 2°37.285 52.6 0.1 187 10.3
2010-10-12 11:03:29 51°9.205 2°37.286 48.5 0.1 138 10.3
2010-10-12 11:04:30 51°9.21 2°37.289 38.5 1.4 17 10.4
2010-10-12 11:05:29 51°9.269 2°37.28 3.5 5 346 11.1
2010-10-12 11:06:30 51°9.357 2°37.194 337.5 7.2 324 12.3
2010-10-12 11:07:29 51°9.451 2°37.009 307.2 10 296 15
2010-10-12 11:08:30 51°9.479 2°36.723 270.4 11.7 265 14.9
2010-10-12 11:09:29 51°9.436 2°36.398 257.2 13.3 257 15.1
2010-10-12 11:10:29 51°9.382 2°36.056 256.6 13.4 256 16
2010-10-12 11:11:29 51°9.331 2°35.717 258.7 13.2 255 16
2010-10-12 11:12:29 51°9.282 2°35.383 256.2 11.9 257 15.8
2010-10-12 11:13:29 51°9.259 2°35.165 279.9 5.9 273 16
2010-10-12 11:14:29 51°9.283 2°35.055 336.8 3.6 313 16.3
2010-10-12 11:15:29 51°9.335 2°35.023 8.9 4 350 16.3
2010-10-12 11:16:29 51°9.407 2°35.033 24.2 4.4 13 16.9
2010-10-12 11:17:29 51°9.464 2°35.069 38.7 3 32 17.2
2010-10-12 11:18:29 51°9.498 2°35.123 51.1 3.1 52 17.9
2010-10-12 11:19:30 51°9.522 2°35.195 64 3.2 71 17.3
2010-10-12 11:20:29 51°9.526 2°35.281 77.3 3.4 96 18.3
2010-10-12 11:21:30 51°9.519 2°35.376 80.2 3.6 99 17.6
2010-10-12 11:22:29 51°9.505 2°35.465 88.3 3.5 109 17.4
2010-10-12 11:23:28 51°9.495 2°35.545 77.9 3 97 16.9
2010-10-12 11:24:29 51°9.493 2°35.622 74 2.8 88 16.6
2010-10-12 11:25:29 51°9.493 2°35.699 74.2 2.9 89 16.8
2010-10-12 11:26:29 51°9.491 2°35.777 77.4 3 95 16.9
2010-10-12 11:27:29 51°9.486 2°35.854 77.7 2.9 99 16.5
2010-10-12 11:28:29 51°9.481 2°35.93 77.2 2.9 92 16.3
2010-10-12 11:29:29 51°9.478 2°36.008 76.4 3 94 16
2010-10-12 11:30:29 51°9.475 2°36.086 77.2 2.9 95 16.3
2010-10-12 11:31:30 51°9.471 2°36.163 77.4 2.8 95 16.2
2010-10-12 11:32:29 51°9.466 2°36.237 74.1 2.7 91 16
2010-10-12 11:33:30 51°9.478 2°36.313 56.7 3.2 61 16.1
2010-10-12 11:34:29 51°9.514 2°36.383 47.9 3.6 46 16.3
2010-10-12 11:35:29 51°9.555 2°36.459 50.9 3.9 52 15.9
2010-10-12 11:36:29 51°9.593 2°36.531 52.3 3.4 52 16.3
2010-10-12 11:37:29 51°9.624 2°36.599 52.6 3 51 16.4
2010-10-12 11:38:29 51°9.655 2°36.666 52.3 3.2 54 16.4
2010-10-12 11:39:29 51°9.686 2°36.737 54.2 3.1 56 16.4
2010-10-12 11:40:29 51°9.714 2°36.81 55.4 3.1 58 15.8
2010-10-12 11:41:29 51°9.732 2°36.889 66.6 3.1 75 16
2010-10-12 11:42:30 51°9.733 2°36.977 86.2 3.6 105 16.3
2010-10-12 11:43:29 51°9.695 2°37.062 113.3 4.3 136 16.1
2010-10-12 11:44:30 51°9.63 2°37.107 142.3 3.9 174 16
2010-10-12 11:45:29 51°9.573 2°37.113 146.3 2.9 181 15.8
2010-10-12 11:46:30 51°9.532 2°37.108 137.1 2 184 15.6
2010-10-12 11:47:29 51°9.502 2°37.097 127.3 1.7 198 15.6
2010-10-12 11:48:29 51°9.477 2°37.079 121.9 1.6 208 15.5
2010-10-12 11:49:29 51°9.456 2°37.056 117.7 1.5 213 15.2
2010-10-12 11:50:29 51°9.434 2°37.031 115.3 1.6 216 15.1
2010-10-12 11:51:29 51°9.414 2°37.005 114 1.5 219 14.6
2010-10-12 11:52:29 51°9.392 2°36.978 115.9 1.7 219 14.7
2010-10-12 11:53:30 51°9.37 2°36.948 120.9 1.7 221 14.5
2010-10-12 11:54:29 51°9.343 2°36.928 137.1 2.3 184 14.4
2010-10-12 11:55:30 51°9.276 2°36.908 200.8 5.2 211 13.3
2010-10-12 11:56:29 51°9.228 2°36.805 244.4 4.6 242 12.8
2010-10-12 11:57:30 51°9.201 2°36.696 265.5 4.3 259 13.1
2010-10-12 11:58:30 51°9.197 2°36.585 284.8 4.2 272 13.9
2010-10-12 11:59:30 51°9.202 2°36.476 291.8 4 276 14.8
2010-10-12 12:00:29 51°9.211 2°36.373 295.6 3.9 280 15.8
2010-10-12 12:01:30 51°9.219 2°36.275 293.2 3.6 274 15.8
2010-10-12 12:02:29 51°9.221 2°36.188 290.4 3.3 270 15.8
2010-10-12 12:03:29 51°9.221 2°36.099 291.9 3.5 272 16
2010-10-12 12:04:29 51°9.221 2°36.005 289.6 3.6 270 16.2
2010-10-12 12:05:29 51°9.221 2°35.908 289 3.6 271 16.1
2010-10-12 12:06:29 51°9.219 2°35.81 288.2 3.7 269 16.3
2010-10-12 12:07:29 51°9.22 2°35.714 290.2 3.6 271 16.4
2010-10-12 12:08:29 51°9.218 2°35.62 289.7 3.6 270 16.6
2010-10-12 12:09:30 51°9.219 2°35.527 294.3 3.5 274 17
2010-10-12 12:10:29 51°9.224 2°35.436 296.5 3.5 277 16.3
2010-10-12 12:11:30 51°9.226 2°35.348 295 3.2 273 16.4
2010-10-12 12:12:29 51°9.229 2°35.264 294.7 3.3 274 16.9
2010-10-12 12:13:30 51°9.234 2°35.177 294.3 3.2 276 16.7
2010-10-12 12:14:29 51°9.238 2°35.09 294 3.4 275 16.7
2010-10-12 12:15:29 51°9.241 2°35.001 294.4 3.4 274 17
2010-10-12 12:16:28 51°9.245 2°34.915 296.9 3.2 276 16.8
2010-10-12 12:17:29 51°9.253 2°34.837 307.8 2.8 286 17.7
2010-10-12 12:18:30 51°9.264 2°34.763 308.1 2.8 285 18.1
2010-10-12 12:19:29 51°9.278 2°34.695 315.4 2.6 291 19
2010-10-12 12:20:30 51°9.293 2°34.627 316.3 2.7 287 18.7
2010-10-12 12:21:29 51°9.307 2°34.567 322.3 2.2 293 18.7
2010-10-12 12:22:30 51°9.313 2°34.521 326.8 1.4 280 16.3
2010-10-12 12:23:29 51°9.309 2°34.487 327.1 1.2 247 17
2010-10-12 12:24:30 51°9.297 2°34.458 324.2 1.2 230 17.4
2010-10-12 12:25:29 51°9.282 2°34.436 315.1 1.3 218 17
2010-10-12 12:26:30 51°9.263 2°34.416 299.9 1.3 218 16.8
2010-10-12 12:27:29 51°9.264 2°34.372 326.6 2.6 310 17.6
2010-10-12 12:28:29 51°9.322 2°34.389 41.5 5.5 44 19.3
2010-10-12 12:29:29 51°9.392 2°34.588 62.3 10.9 66 18.5
2010-10-12 12:30:29 51°9.456 2°34.891 72.6 12.6 75 19
2010-10-12 12:31:29 51°9.505 2°35.214 73.9 12.6 74 18.1
2010-10-12 12:32:29 51°9.555 2°35.537 73.1 12.6 76 18.2
2010-10-12 12:33:29 51°9.604 2°35.859 74.2 12.3 78 17.6
2010-10-12 12:34:29 51°9.643 2°36.175 77 12.1 80 18.3
2010-10-12 12:35:28 51°9.681 2°36.489 76.3 12.4 79 18.2
2010-10-12 12:36:29 51°9.72 2°36.82 77.1 12.5 81 17
2010-10-12 12:37:29 51°9.76 2°37.138 76.1 12.1 82 17.1
2010-10-12 12:38:29 51°9.8 2°37.452 76.1 12 79 16.9
2010-10-12 12:39:29 51°9.838 2°37.766 76.6 12 80 16.7
2010-10-12 12:40:29 51°9.877 2°38.083 78.1 12.3 81 16.8
2010-10-12 12:41:29 51°9.917 2°38.404 75.4 12.3 77 15.8
2010-10-12 12:42:29 51°9.96 2°38.726 76.4 12.4 78 14.9
2010-10-12 12:43:28 51°10.002 2°39.045 77 12.5 78 14.3
2010-10-12 12:44:29 51°10.044 2°39.378 76.4 12.6 78 13.4
2010-10-12 12:45:29 51°10.086 2°39.704 77 12.6 78 12.9
2010-10-12 12:46:29 51°10.128 2°40.032 76.1 12.7 79 12.2
2010-10-12 12:47:29 51°10.18 2°40.355 72.6 12.6 75 12.3
2010-10-12 12:48:29 51°10.238 2°40.674 71.9 12.6 73 12.2
2010-10-12 12:49:29 51°10.296 2°40.993 72 12.3 75 12.4
2010-10-12 12:50:29 51°10.354 2°41.308 72.8 12.4 73 12.4
2010-10-12 12:51:28 51°10.41 2°41.618 72.9 12.4 72 11.7
2010-10-12 12:52:29 51°10.468 2°41.938 72.4 12.4 76 11.6
2010-10-12 12:53:29 51°10.524 2°42.253 72.3 12.3 76 11.4
2010-10-12 12:54:29 51°10.583 2°42.567 71.2 12.4 72 11.3
2010-10-12 12:55:29 51°10.653 2°42.872 67.9 12.3 71 11.3
2010-10-12 12:56:28 51°10.724 2°43.173 67.9 12.3 70 11.4
2010-10-12 12:57:29 51°10.796 2°43.484 68.2 12.3 69 11.4
2010-10-12 12:58:29 51°10.876 2°43.782 59.4 12.1 58 11.7
2010-10-12 12:59:29 51°11.018 2°44.017 39.8 12.5 40 12.5
2010-10-12 13:00:29 51°11.168 2°44.249 48.7 12.6 48 13.2
2010-10-12 13:01:29 51°11.273 2°44.536 66.1 12.6 68 13.5
2010-10-12 13:02:29 51°11.334 2°44.856 70.2 12.7 70 13.6
2010-10-12 13:03:29 51°11.411 2°45.169 65.2 12.7 67 13.7
2010-10-12 13:04:29 51°11.496 2°45.477 64.1 12.7 67 14
2010-10-12 13:05:29 51°11.583 2°45.786 64.9 12.9 66 13.7
2010-10-12 13:06:28 51°11.668 2°46.092 64.9 12.9 66 13.7
2010-10-12 13:07:29 51°11.758 2°46.407 64.3 12.8 65 13.7
2010-10-12 13:08:29 51°11.847 2°46.718 64.1 13 66 14
2010-10-12 13:09:29 51°11.935 2°47.028 64.4 12.8 65 13.6
2010-10-12 13:10:29 51°12.021 2°47.339 64 13 68 13.7
2010-10-12 13:11:29 51°12.109 2°47.653 64.3 12.9 66 13.9
2010-10-12 13:12:29 51°12.199 2°47.965 63.9 13 63 13.7
2010-10-12 13:13:28 51°12.286 2°48.272 64.4 13 66 13.7
2010-10-12 13:14:29 51°12.378 2°48.589 64.7 13 65 13
2010-10-12 13:15:29 51°12.469 2°48.901 64 12.9 64 12.8
2010-10-12 13:16:29 51°12.569 2°49.204 61.2 12.9 62 13.1
2010-10-12 13:17:28 51°12.669 2°49.502 61 12.9 61 12.9
2010-10-12 13:18:29 51°12.774 2°49.812 61 13.2 62 12.9
2010-10-12 13:19:29 51°12.878 2°50.118 60.3 13.2 63 12.2
2010-10-12 13:20:29 51°12.987 2°50.421 59.5 13.2 61 12.9
2010-10-12 13:21:29 51°13.095 2°50.729 60 13.4 62 12.8
2010-10-12 13:22:29 51°13.204 2°51.036 60.1 13.2 60 12.2
2010-10-12 13:23:29 51°13.313 2°51.344 60.2 13.5 62 12.5
2010-10-12 13:24:29 51°13.422 2°51.654 60.6 13.3 62 12.3
2010-10-12 13:25:29 51°13.538 2°51.957 57 13.5 59 12.3
2010-10-12 13:26:29 51°13.658 2°52.256 56.6 13.4 57 11.8
2010-10-12 13:27:29 51°13.776 2°52.552 57.3 13.2 57 11.7
2010-10-12 13:28:29 51°13.897 2°52.846 56.1 13.3 56 11.7
2010-10-12 13:29:29 51°14.019 2°53.139 55.8 13.4 56 11.7
2010-10-12 13:30:29 51°14.143 2°53.435 55.7 13.5 56 11.6
2010-10-12 13:31:29 51°14.268 2°53.731 56.5 13.5 56 11.1
2010-10-12 13:32:29 51°14.393 2°54.029 56.2 13.5 56 11.5
2010-10-12 13:33:29 51°14.517 2°54.326 56.2 13.5 56 11.6
2010-10-12 13:34:29 51°14.643 2°54.625 56.3 13.7 57 12
2010-10-12 13:35:28 51°14.766 2°54.921 56.4 13.5 56 11.7
2010-10-12 13:36:29 51°14.888 2°55.232 59.8 13.7 61 11.5
2010-10-12 13:37:29 51°14.969 2°55.569 74.6 13.6 80 10.9
2010-10-12 13:38:29 51°14.983 2°55.872 90.5 9 91 10.8
2010-10-12 13:39:29 51°14.971 2°56.077 100.2 7.4 99 10.2
2010-10-12 13:40:29 51°14.954 2°56.274 96.8 7.8 96 9.7
2010-10-12 13:41:29 51°14.975 2°56.479 67 7.8 68 9.4
2010-10-12 13:42:29 51°15.039 2°56.67 58.4 8.3 61 9.6
2010-10-12 13:43:29 51°15.11 2°56.865 58.4 8.5 61 9.7
2010-10-12 13:44:29 51°15.197 2°57.055 47.4 9.3 49 9.8
2010-10-12 13:45:29 51°15.316 2°57.099 326.8 7.1 323 9.8
2010-10-12 13:46:29 51°15.322 2°56.893 251.2 9.9 259 9.9
2010-10-12 13:47:29 51°15.26 2°56.602 251.1 11.8 253 9.9
2010-10-12 13:48:29 51°15.197 2°56.302 249.5 12.1 248 10.5
2010-10-12 13:49:29 51°15.135 2°56 251.4 12 249 10.7
2010-10-12 13:50:28 51°15.072 2°55.704 250.6 11.7 250 10.7
2010-10-12 13:51:28 51°15.008 2°55.408 251.5 11.8 248 11.7
2010-10-12 13:52:28 51°14.918 2°55.134 230.2 11.5 225 11.6
2010-10-12 13:53:29 51°14.741 2°54.987 203.4 11.9 195 12.1
2010-10-12 13:54:28 51°14.545 2°55.02 164.1 12.6 155 13.7
2010-10-12 13:55:28 51°14.363 2°55.185 144.6 11.5 148 12.5
2010-10-12 13:56:28 51°14.221 2°55.329 146.1 8.9 149 13.2
2010-10-12 13:57:29 51°14.083 2°55.437 153.3 9 155 12.2
2010-10-12 13:58:28 51°13.962 2°55.525 155 7.8 155 13.7
2010-10-12 13:59:28 51°13.849 2°55.606 154.1 6.9 156 12.8
2010-10-12 14:00:28 51°13.764 2°55.701 131.8 5.8 134 13.5
2010-10-12 14:01:29 51°13.706 2°55.816 124.4 4.9 126 13.9
2010-10-12 14:02:28 51°13.672 2°55.916 108.3 4.2 110 11.5
2010-10-12 14:03:30 51°13.662 2°55.956 121.1 0.7 135 10.8
2010-10-12 14:04:33 51°13.661 2°55.959 119.1 0.1 347 -999
2010-10-13 07:34:34 51°13.661 2°55.959 124.2 -999 -999 7.8
2010-10-13 07:35:33 51°13.662 2°55.96 124.3 -999 99 7.9
2010-10-13 07:36:31 51°13.662 2°55.961 124.2 -999 26 8
2010-10-13 07:37:31 51°13.662 2°55.96 124.1 -999 268 7.8
2010-10-13 07:38:30 51°13.663 2°55.96 123.8 0.1 124 7.8
2010-10-13 07:39:31 51°13.663 2°55.961 124.2 0.1 181 7.9
2010-10-13 07:40:31 51°13.663 2°55.961 123.7 0.1 339 7.8
2010-10-13 07:41:30 51°13.663 2°55.961 124.1 0.1 201 7.8
2010-10-13 07:42:31 51°13.662 2°55.96 124.1 -999 130 7.8
2010-10-13 07:43:31 51°13.662 2°55.96 124.4 0.1 8 7.8
2010-10-13 07:44:31 51°13.661 2°55.959 124.5 -999 260 7.8
2010-10-13 07:45:30 51°13.661 2°55.959 124.5 -999 245 8
2010-10-13 07:46:31 51°13.661 2°55.959 124.1 0.1 46 7.7
2010-10-13 07:47:30 51°13.661 2°55.959 124.1 0.1 221 7.7
2010-10-13 07:48:31 51°13.662 2°55.959 124.1 0.1 39 7.8
2010-10-13 07:49:31 51°13.662 2°55.959 124.1 0.1 311 7.7
2010-10-13 07:50:31 51°13.662 2°55.96 123.9 -999 247 7.7
2010-10-13 07:51:31 51°13.663 2°55.96 124.3 0.1 208 7.7
2010-10-13 07:52:31 51°13.663 2°55.96 124.2 0.1 210 7.7
2010-10-13 07:53:31 51°13.663 2°55.96 124.2 0.1 59 7.7
2010-10-13 07:54:31 51°13.662 2°55.96 123.5 0.1 176 5.6
2010-10-13 07:55:31 51°13.664 2°55.96 123.5 -999 352 7.6
2010-10-13 07:56:31 51°13.664 2°55.96 123.4 -999 349 5.6
2010-10-13 07:57:31 51°13.663 2°55.96 123.5 -999 356 5.6
2010-10-13 07:58:31 51°13.663 2°55.96 123.7 0.1 54 7.6
2010-10-13 07:59:31 51°13.663 2°55.96 124.2 0.1 48 7.6
2010-10-13 08:00:31 51°13.664 2°55.961 124.2 0.1 46 7.6
2010-10-13 08:01:31 51°13.663 2°55.961 124.1 -999 2 7.6
2010-10-13 08:02:31 51°13.662 2°55.96 123.5 -999 31 7.6
2010-10-13 08:03:31 51°13.662 2°55.96 123.6 -999 1 7.6
2010-10-13 08:04:31 51°13.662 2°55.961 123.7 -999 88 7.5
2010-10-13 08:05:31 51°13.662 2°55.961 124.1 -999 241 7.5
2010-10-13 08:06:31 51°13.662 2°55.961 123.4 -999 260 7.4
2010-10-13 08:07:31 51°13.662 2°55.961 123.4 -999 359 7.5
2010-10-13 08:08:31 51°13.662 2°55.962 123.7 -999 35 7.5
2010-10-13 08:09:31 51°13.663 2°55.962 124.5 -999 352 7.5
2010-10-13 08:10:31 51°13.663 2°55.962 124.2 -999 230 7.5
2010-10-13 08:11:31 51°13.663 2°55.962 123.6 -999 156 7.5
2010-10-13 08:12:31 51°13.664 2°55.962 123.6 0.1 106 7.5
2010-10-13 08:13:31 51°13.665 2°55.962 123.7 -999 114 7.4
2010-10-13 08:14:31 51°13.665 2°55.962 123.7 -999 118 7.4
2010-10-13 08:15:31 51°13.664 2°55.962 123.5 -999 120 7.4
2010-10-13 08:16:31 51°13.664 2°55.962 123.5 -999 251 7.4
2010-10-13 08:17:31 51°13.664 2°55.961 123.8 -999 352 7.4
2010-10-13 08:18:31 51°13.664 2°55.961 123.8 -999 131 7.3
2010-10-13 08:19:31 51°13.664 2°55.961 123.8 -999 357 7.3
2010-10-13 08:20:31 51°13.664 2°55.961 123.6 -999 150 7.3
2010-10-13 08:21:31 51°13.664 2°55.961 123.6 0.1 302 7.2
2010-10-13 08:22:31 51°13.664 2°55.961 123.7 -999 283 5.5
2010-10-13 08:23:31 51°13.664 2°55.962 123.8 -999 44 7.2
2010-10-13 08:24:31 51°13.664 2°55.962 123.9 -999 9 7.3
2010-10-13 08:25:31 51°13.663 2°55.962 124.2 -999 114 7.3
2010-10-13 08:26:31 51°13.663 2°55.962 123.7 0.1 115 7.3
2010-10-13 08:27:31 51°13.664 2°55.96 123.7 -999 305 7.3
2010-10-13 08:28:31 51°13.663 2°55.96 123.7 0.1 323 7.2
2010-10-13 08:29:31 51°13.662 2°55.96 123.6 0.1 281 7.2
2010-10-13 08:30:31 51°13.661 2°55.96 123.6 -999 113 5.4
2010-10-13 08:31:31 51°13.662 2°55.96 123.7 -999 106 5.4
2010-10-13 08:32:31 51°13.662 2°55.959 123.9 -999 92 7.2
2010-10-13 08:33:31 51°13.663 2°55.959 124.4 0.1 267 7.2
2010-10-13 08:34:31 51°13.663 2°55.959 124.1 -999 58 7.2
2010-10-13 08:35:31 51°13.663 2°55.96 123.9 -999 57 7.2
2010-10-13 08:36:31 51°13.662 2°55.96 123.9 -999 71 7.2
2010-10-13 08:37:31 51°13.663 2°55.96 124 -999 84 5.4
2010-10-13 08:38:31 51°13.663 2°55.96 124 0.1 316 7.2
2010-10-13 08:39:31 51°13.663 2°55.96 123.9 -999 65 7.2
2010-10-13 08:40:31 51°13.663 2°55.96 124.1 0.1 284 7.1
2010-10-13 08:41:31 51°13.663 2°55.961 124.2 0.1 36 7.1
2010-10-13 08:42:31 51°13.663 2°55.96 124.4 -999 259 7.1
2010-10-13 08:43:30 51°13.663 2°55.959 124.4 0.1 315 7.1
2010-10-13 08:44:31 51°13.663 2°55.958 124 -999 93 7.1
2010-10-13 08:45:31 51°13.663 2°55.958 124.3 -999 188 7
2010-10-13 08:46:31 51°13.663 2°55.958 124.5 0.1 203 7.1
2010-10-13 08:47:31 51°13.663 2°55.959 124.2 -999 71 7.1
2010-10-13 08:48:31 51°13.663 2°55.959 123.8 -999 38 5.3
2010-10-13 08:49:31 51°13.663 2°55.96 123.8 0.1 13 7
2010-10-13 08:50:31 51°13.663 2°55.959 123.9 0.1 112 7
2010-10-13 08:51:31 51°13.664 2°55.959 124.2 0.1 312 7
2010-10-13 08:52:30 51°13.664 2°55.96 124.2 0.1 339 5.3
2010-10-13 08:53:31 51°13.663 2°55.96 124.2 -999 326 7
2010-10-13 08:54:31 51°13.663 2°55.96 124.2 0.1 305 7
2010-10-13 08:55:30 51°13.662 2°55.96 124.1 -999 308 7
2010-10-13 08:56:31 51°13.662 2°55.96 124.1 0.1 306 7
2010-10-13 08:57:30 51°13.663 2°55.96 124.4 -999 1 7
2010-10-13 08:58:31 51°13.662 2°55.959 124.2 -999 276 6.9
2010-10-13 08:59:30 51°13.662 2°55.96 124.1 0.1 111 7
2010-10-13 09:00:31 51°13.662 2°55.959 124.1 0.1 352 6.9
2010-10-13 09:01:30 51°13.662 2°55.96 124.1 -999 241 7
2010-10-13 09:02:31 51°13.662 2°55.961 124 0.1 70 6.9
2010-10-13 09:03:31 51°13.662 2°55.96 124 -999 68 6.9
2010-10-13 09:04:30 51°13.662 2°55.961 124.1 -999 62 6.9
2010-10-13 09:05:31 51°13.662 2°55.96 124.2 -999 65 6.9
2010-10-13 09:06:30 51°13.662 2°55.96 124.4 0.1 282 6.9
2010-10-13 09:07:31 51°13.663 2°55.96 124.2 -999 84 6.9
2010-10-13 09:08:30 51°13.663 2°55.96 124.2 -999 22 6.9
2010-10-13 09:09:31 51°13.663 2°55.96 124.2 -999 285 6.9
2010-10-13 09:10:31 51°13.662 2°55.961 124.2 -999 63 6.9
2010-10-13 09:11:31 51°13.662 2°55.961 124.2 0.1 94 6.9
2010-10-13 09:12:31 51°13.662 2°55.96 124.4 -999 227 6.8
2010-10-13 09:13:31 51°13.662 2°55.96 124.4 -999 291 6.8
2010-10-13 09:14:31 51°13.662 2°55.96 124.5 -999 83 6.8
2010-10-13 09:15:31 51°13.662 2°55.96 124.4 -999 283 6.8
2010-10-13 09:16:31 51°13.662 2°55.96 124.2 -999 299 6.8
2010-10-13 09:17:31 51°13.662 2°55.96 124.2 -999 282 6.8
2010-10-13 09:18:31 51°13.662 2°55.961 124.2 -999 4 6.8
2010-10-13 09:19:31 51°13.662 2°55.961 124.2 -999 55 6.8
2010-10-13 09:20:31 51°13.662 2°55.961 124.3 -999 261 6.8
2010-10-13 09:21:31 51°13.663 2°55.961 124.4 -999 32 6.8
2010-10-13 09:22:31 51°13.663 2°55.961 124.4 0.1 276 6.8
2010-10-13 09:23:31 51°13.662 2°55.961 124.4 -999 15 6.8
2010-10-13 09:24:31 51°13.662 2°55.962 124.4 -999 350 6.8
2010-10-13 09:25:31 51°13.662 2°55.961 124.4 0.1 255 5.2
2010-10-13 09:26:31 51°13.662 2°55.961 124.4 -999 278 6.7
2010-10-13 09:27:31 51°13.662 2°55.961 124.4 -999 279 6.7
2010-10-13 09:28:31 51°13.662 2°55.96 124.4 0.1 268 7
2010-10-13 09:29:31 51°13.662 2°55.956 124.4 0.1 91 6.8
2010-10-13 09:30:31 51°13.662 2°55.958 124.4 0.1 226 6.8
2010-10-13 09:31:31 51°13.662 2°55.959 124.4 -999 255 6.8
2010-10-13 09:32:31 51°13.662 2°55.96 124.4 -999 90 6.8
2010-10-13 09:33:31 51°13.663 2°55.96 124.4 0.1 75 6.8
2010-10-13 09:34:31 51°13.665 2°55.957 124.4 0.1 236 6.7
2010-10-13 09:35:31 51°13.665 2°55.957 124.4 -999 198 6.7
2010-10-13 09:36:31 51°13.666 2°55.957 124.4 0.1 335 6.7
2010-10-13 09:37:31 51°13.665 2°55.957 124.3 -999 161 6.7
2010-10-13 09:38:31 51°13.664 2°55.958 124.3 0.1 155 6.7
2010-10-13 09:39:31 51°13.664 2°55.957 124.3 0.1 220 6.7
2010-10-13 09:40:31 51°13.664 2°55.958 124.2 0.1 160 6.7
2010-10-13 09:41:31 51°13.665 2°55.958 124.5 0.1 352 6.7
2010-10-13 09:42:31 51°13.664 2°55.958 124.1 0.1 102 6.7
2010-10-13 09:43:31 51°13.663 2°55.959 124.3 -999 66 6.7
2010-10-13 09:44:31 51°13.664 2°55.959 124.1 0.1 5 6.9
2010-10-13 09:45:31 51°13.662 2°55.96 124.5 0.1 136 6.6
2010-10-13 09:46:31 51°13.662 2°55.961 124.5 -999 142 6.7
2010-10-13 09:47:31 51°13.662 2°55.96 124.3 0.1 173 6.7
2010-10-13 09:48:31 51°13.662 2°55.96 124.1 -999 193 6.7
2010-10-13 09:49:31 51°13.662 2°55.96 124.2 -999 144 6.7
2010-10-13 09:50:31 51°13.663 2°55.959 124.1 -999 207 6.7
2010-10-13 09:51:30 51°13.666 2°55.958 124.2 -999 4 6.7
2010-10-13 09:52:31 51°13.669 2°55.959 124.5 -999 140 6.7
2010-10-13 09:53:31 51°13.666 2°55.958 123.8 -999 27 6.7
2010-10-13 09:54:31 51°13.662 2°55.958 123.9 -999 112 6.8
2010-10-13 09:55:30 51°13.663 2°55.958 124.2 -999 300 6.7
2010-10-13 09:56:31 51°13.664 2°55.959 124.2 -999 163 6.9
2010-10-13 09:57:30 51°13.664 2°55.959 124.6 -999 24 6.6
2010-10-13 09:58:30 51°13.664 2°55.96 124.5 -999 323 6.7
2010-10-13 09:59:31 51°13.662 2°55.959 124.2 0.1 341 6.7
2010-10-13 10:00:31 51°13.663 2°55.959 124.2 -999 339 6.7
2010-10-13 10:01:30 51°13.664 2°55.959 124.3 -999 186 6.7
2010-10-13 10:02:31 51°13.665 2°55.959 124.3 -999 157 6.7
2010-10-13 10:03:31 51°13.658 2°55.957 124.4 -999 188 6.6
2010-10-13 10:04:30 51°13.658 2°55.958 124.2 -999 348 6.7
2010-10-13 10:05:30 51°13.658 2°55.958 124.2 -999 96 6.7
2010-10-13 10:06:30 51°13.658 2°55.958 124.3 -999 191 6.7
2010-10-13 10:07:30 51°13.658 2°55.958 124.2 -999 339 6.7
2010-10-13 10:08:30 51°13.644 2°55.955 124.2 0.1 342 6.6
2010-10-13 10:09:29 51°13.659 2°55.957 124.2 -999 9 6.7
2010-10-13 10:10:31 51°13.658 2°55.958 124.5 -999 351 6.7
2010-10-13 10:11:30 51°13.661 2°55.959 124.1 -999 335 6.8
2010-10-13 10:12:30 51°13.661 2°55.959 124.1 -999 6 6.7
2010-10-13 10:13:30 51°13.662 2°55.96 124.1 -999 160 6.7
2010-10-13 10:14:31 51°13.66 2°55.962 124.2 -999 10 6.7
2010-10-13 10:15:29 51°13.661 2°55.965 124.5 0.1 183 6.7
2010-10-13 10:16:30 51°13.663 2°55.963 124.2 -999 345 6.7
2010-10-13 10:17:30 51°13.662 2°55.963 124.2 -999 322 6.7
2010-10-13 10:18:30 51°13.662 2°55.963 124.5 -999 186 6.7
2010-10-13 10:19:30 51°13.664 2°55.962 124.2 -999 154 6.7
2010-10-13 10:20:30 51°13.658 2°55.967 124.2 0.1 163 6.7
2010-10-13 10:21:30 51°13.655 2°55.965 124.3 0.1 166 6.7
2010-10-13 10:22:29 51°13.653 2°55.966 124.3 0.1 163 6.7
2010-10-13 10:23:30 51°13.652 2°55.969 124.2 0.1 161 6.7
2010-10-13 10:24:29 51°13.65 2°55.97 124.2 0.2 164 6.7
2010-10-13 10:25:30 51°13.647 2°55.971 124.2 0.2 180 6.7